Time;durP1;ratioP1;P1;durP2;ratioP2;P2;SDS_P1;SDS_P2;PMS_P1;PMS_P2;Temp;Humidity;BMP_temperature;BMP_pressure;BME280_temperature;BME280_humidity;BME280_pressure;Samples;Min_cycle;Max_cycle;Signal;HPM_P1;HPM_P2
2023/06/28 00:01:14;;;;;;;2.00;2.00;;;;;;;19.15;96.77;96657.38;4986900;28;20058;-62
2023/06/28 00:03:41;;;;;;;1.92;1.92;;;;;;;19.27;96.89;96661.50;4986890;28;20414;-62
2023/06/28 00:06:07;;;;;;;1.95;1.95;;;;;;;19.00;98.04;96630.84;4986828;28;20325;-60
2023/06/28 00:08:34;;;;;;;1.98;1.98;;;;;;;18.91;97.52;96655.13;4987124;28;20121;-61
2023/06/28 00:11:01;;;;;;;1.80;1.80;;;;;;;17.07;100.00;96499.31;5001820;28;20050;-59
2023/06/28 00:13:28;;;;;;;1.60;1.60;;;;;;;18.27;100.00;96638.81;4985407;28;20508;-60
2023/06/28 00:15:54;;;;;;;1.90;1.90;;;;;;;18.50;100.00;96647.16;4986848;28;20062;-60
2023/06/28 00:18:21;;;;;;;1.90;1.90;;;;;;;18.54;100.00;96650.69;4986972;28;20066;-59
2023/06/28 00:20:48;;;;;;;1.80;1.80;;;;;;;18.41;100.00;96621.72;4976200;28;20062;-60
2023/06/28 00:23:14;;;;;;;1.90;1.90;;;;;;;18.62;100.00;96626.88;4985840;28;20050;-59
2023/06/28 00:25:42;;;;;;;1.90;1.90;;;;;;;18.67;100.00;96646.00;4986277;28;20518;-60
2023/06/28 00:28:08;;;;;;;2.03;2.03;;;;;;;18.74;100.00;96640.25;4986550;28;20073;-59
2023/06/28 00:30:35;;;;;;;1.98;1.98;;;;;;;18.89;99.86;96647.13;5001631;28;20046;-59
2023/06/28 00:33:01;;;;;;;1.90;1.90;;;;;;;18.86;100.00;96642.38;4986375;28;20517;-59
2023/06/28 00:35:28;;;;;;;1.90;1.90;;;;;;;18.90;99.84;96648.72;4987144;28;20054;-60
2023/06/28 00:37:55;;;;;;;1.90;1.90;;;;;;;18.90;98.70;96643.13;4986591;28;20066;-60
2023/06/28 00:40:22;;;;;;;1.80;1.80;;;;;;;18.51;99.34;96615.06;5001236;28;20042;-59
2023/06/28 00:42:49;;;;;;;2.10;2.10;;;;;;;18.75;100.00;96641.81;5001245;28;20058;-61
2023/06/28 00:45:15;;;;;;;1.90;1.90;;;;;;;18.83;99.99;96632.03;4991775;28;20141;-59
2023/06/28 00:47:43;;;;;;;1.80;1.80;;;;;;;18.80;100.00;96655.34;4983782;28;20141;-60
2023/06/28 00:50:10;;;;;;;1.88;1.88;;;;;;;18.80;100.00;96644.13;4996703;28;20138;-60
2023/06/28 00:52:37;;;;;;;1.98;1.98;;;;;;;18.88;99.42;96639.94;5005675;28;20050;-60
2023/06/28 00:55:04;;;;;;;2.00;2.00;;;;;;;18.72;98.41;96642.69;5005144;28;20054;-59
2023/06/28 00:57:32;;;;;;;1.70;1.70;;;;;;;18.76;99.14;96637.00;5005627;28;20057;-59
2023/06/28 00:59:59;;;;;;;1.60;1.60;;;;;;;18.76;100.00;96643.41;5020769;28;20045;-59
2023/06/28 01:02:26;;;;;;;1.92;1.92;;;;;;;18.68;100.00;96642.00;5005511;28;20046;-60
2023/06/28 01:04:57;;;;;;;1.80;1.80;;;;;;;18.32;99.16;96578.63;5005843;28;20089;-60
2023/06/28 01:07:29;;;;;;;1.90;1.90;;;;;;;18.64;98.25;96634.84;5005014;28;20120;-60
2023/06/28 01:09:57;;;;;;;1.70;1.70;;;;;;;18.57;98.63;96624.59;5005381;28;20053;-59
2023/06/28 01:12:25;;;;;;;1.60;1.60;;;;;;;18.38;98.83;96602.94;5005155;28;20053;-60
2023/06/28 01:14:52;;;;;;;2.00;2.00;;;;;;;18.41;99.46;96638.53;5020617;28;20046;-59
2023/06/28 01:17:19;;;;;;;1.75;1.75;;;;;;;18.30;99.87;96631.53;5005473;28;20057;-60
2023/06/28 01:19:46;;;;;;;1.67;1.67;;;;;;;18.34;99.52;96643.44;5005672;28;20148;-59
2023/06/28 01:22:13;;;;;;;1.80;1.80;;;;;;;18.33;99.79;96648.28;5005272;28;20062;-59
2023/06/28 01:24:41;;;;;;;1.73;1.73;;;;;;;18.36;100.00;96641.81;5005493;28;20427;-59
2023/06/28 01:27:11;;;;;;;1.80;1.80;;;;;;;18.43;100.00;96641.69;5004997;28;20053;-62
2023/06/28 01:29:40;;;;;;;2.00;2.00;;;;;;;18.47;100.00;96639.63;5005413;28;20056;-60
2023/06/28 01:32:07;;;;;;;1.67;1.67;;;;;;;17.88;100.00;96563.06;5004646;28;20560;-60
2023/06/28 01:34:34;;;;;;;1.80;1.80;;;;;;;18.39;100.00;96651.41;5005079;28;20125;-62
2023/06/28 01:37:02;;;;;;;2.00;2.00;;;;;;;18.29;99.23;96650.34;5004697;28;20052;-59
2023/06/28 01:39:31;;;;;;;1.83;1.83;;;;;;;17.72;100.00;96563.75;5005023;28;20054;-60
2023/06/28 01:42:00;;;;;;;1.73;1.73;;;;;;;18.42;100.00;96665.34;5016754;28;20046;-62
2023/06/28 01:44:27;;;;;;;2.03;2.03;;;;;;;18.38;100.00;96661.84;5004782;28;20520;-60
2023/06/28 01:46:54;;;;;;;1.85;1.85;;;;;;;18.49;100.00;96661.63;5004501;28;20061;-60
2023/06/28 01:49:21;;;;;;;1.60;1.60;;;;;;;18.32;100.00;96637.50;5004970;28;20057;-60
2023/06/28 01:51:48;;;;;;;1.70;1.70;;;;;;;18.41;100.00;96665.78;5004416;28;20444;-61
2023/06/28 01:54:15;;;;;;;1.70;1.70;;;;;;;18.51;100.00;96665.56;5005253;28;20054;-59
2023/06/28 01:56:42;;;;;;;1.88;1.88;;;;;;;18.47;99.29;96653.66;5004412;28;20586;-60
2023/06/28 01:59:08;;;;;;;1.80;1.80;;;;;;;18.52;99.09;96667.16;5004743;28;20100;-60
2023/06/28 02:01:35;;;;;;;2.00;2.00;;;;;;;17.84;98.02;96581.97;5003375;28;20099;-61
2023/06/28 02:04:02;;;;;;;1.63;1.63;;;;;;;18.41;97.71;96663.00;5004916;28;20064;-59
2023/06/28 02:06:29;;;;;;;1.75;1.75;;;;;;;17.75;97.25;96567.72;5019781;28;20410;-60
2023/06/28 02:08:56;;;;;;;1.77;1.77;;;;;;;18.42;97.78;96679.38;5004474;28;20061;-60
2023/06/28 02:11:22;;;;;;;1.75;1.75;;;;;;;17.94;98.95;96620.22;5019323;28;20053;-60
2023/06/28 02:13:49;;;;;;;1.77;1.77;;;;;;;18.24;99.58;96673.28;5004539;28;20054;-60
2023/06/28 02:16:15;;;;;;;1.90;1.90;;;;;;;18.21;100.00;96679.75;5004424;28;20062;-60
2023/06/28 02:18:45;;;;;;;1.60;1.60;;;;;;;18.18;99.80;96663.78;5004446;28;20103;-60
2023/06/28 02:21:12;;;;;;;1.73;1.73;;;;;;;18.14;100.00;96657.47;5004453;28;20136;-60
2023/06/28 02:23:38;;;;;;;1.70;1.70;;;;;;;18.11;100.00;96656.28;5004389;28;20065;-59
2023/06/28 02:26:05;;;;;;;1.42;1.42;;;;;;;17.85;100.00;96611.56;5003070;28;20053;-59
2023/06/28 02:28:32;;;;;;;1.60;1.60;;;;;;;18.06;100.00;96650.41;5004607;28;20081;-60
2023/06/28 02:30:59;;;;;;;1.70;1.70;;;;;;;18.05;99.25;96660.06;5004473;28;20137;-62
2023/06/28 02:33:25;;;;;;;1.75;1.75;;;;;;;17.86;99.87;96641.19;5004314;28;20050;-59
2023/06/28 02:35:52;;;;;;;1.85;1.85;;;;;;;17.95;99.73;96656.22;5019269;28;20049;-61
2023/06/28 02:38:19;;;;;;;1.75;1.75;;;;;;;17.66;99.58;96609.50;5004471;28;20847;-59
2023/06/28 02:40:45;;;;;;;1.83;1.83;;;;;;;17.96;100.00;96662.59;5003966;28;20054;-60
2023/06/28 02:43:12;;;;;;;1.73;1.73;;;;;;;17.83;100.00;96642.03;5004357;28;20058;-59
2023/06/28 02:45:38;;;;;;;1.60;1.60;;;;;;;17.85;100.00;96656.38;5004647;28;20046;-60
2023/06/28 02:48:05;;;;;;;1.70;1.70;;;;;;;17.86;100.00;96658.00;5003902;28;20062;-61
2023/06/28 02:50:32;;;;;;;1.55;1.55;;;;;;;17.32;100.00;96566.88;5004369;28;20093;-59
2023/06/28 02:52:58;;;;;;;1.70;1.70;;;;;;;17.38;100.00;96584.75;5004165;28;20057;-59
2023/06/28 02:55:25;;;;;;;1.52;1.52;;;;;;;17.98;99.88;96665.78;5004421;28;20069;-60
2023/06/28 02:57:53;;;;;;;1.70;1.70;;;;;;;17.80;97.90;96637.25;5004202;28;20050;-60
2023/06/28 03:00:20;;;;;;;1.67;1.67;;;;;;;17.51;98.67;96602.56;5002631;28;20050;-61
2023/06/28 03:02:47;;;;;;;1.90;1.90;;;;;;;17.70;99.04;96650.22;5019111;28;20064;-59
2023/06/28 03:05:13;;;;;;;1.70;1.70;;;;;;;17.40;99.08;96597.09;5004242;28;20637;-60
2023/06/28 03:07:40;;;;;;;1.60;1.60;;;;;;;17.77;98.97;96657.72;5004336;28;20064;-59
2023/06/28 03:10:07;;;;;;;1.50;1.50;;;;;;;17.81;98.78;96655.66;5004283;28;20141;-60
2023/06/28 03:12:34;;;;;;;1.80;1.80;;;;;;;17.86;98.55;96660.78;5004586;28;20061;-59
2023/06/28 03:15:01;;;;;;;1.80;1.80;;;;;;;17.96;98.71;96651.38;5007930;28;20532;-59
2023/06/28 03:17:29;;;;;;;1.77;1.77;;;;;;;17.96;97.40;96665.41;4998792;28;20528;-59
2023/06/28 03:19:56;;;;;;;1.73;1.73;;;;;;;17.94;96.75;96665.06;5002623;28;20062;-62
2023/06/28 03:22:23;;;;;;;1.80;1.80;;;;;;;17.91;97.45;96665.88;4987788;28;20061;-60
2023/06/28 03:24:49;;;;;;;1.60;1.60;;;;;;;17.88;97.47;96666.75;4988217;28;20062;-61
2023/06/28 03:27:16;;;;;;;1.65;1.65;;;;;;;17.85;98.19;96673.19;4987869;28;20149;-60
2023/06/28 03:29:43;;;;;;;1.73;1.73;;;;;;;17.61;98.67;96668.81;4988066;28;20072;-60
2023/06/28 03:32:09;;;;;;;1.65;1.65;;;;;;;17.68;99.12;96679.91;4987536;28;20065;-59
2023/06/28 03:34:36;;;;;;;1.70;1.70;;;;;;;17.50;97.11;96623.38;4987893;28;20050;-60
2023/06/28 03:37:03;;;;;;;1.70;1.70;;;;;;;17.81;96.96;96672.47;5002263;28;20112;-59
2023/06/28 03:39:31;;;;;;;1.60;1.60;;;;;;;17.90;97.23;96669.91;4987824;28;20050;-62
2023/06/28 03:41:57;;;;;;;1.50;1.50;;;;;;;17.92;97.33;96671.06;5003683;28;20243;-59
2023/06/28 03:44:24;;;;;;;1.70;1.70;;;;;;;17.77;96.42;96632.50;5007326;28;20481;-60
2023/06/28 03:46:51;;;;;;;1.70;1.70;;;;;;;18.21;96.11;96668.53;5006784;28;20153;-62
2023/06/28 03:49:18;;;;;;;1.67;1.67;;;;;;;18.38;96.27;96673.06;5007520;28;20089;-60
2023/06/28 03:51:44;;;;;;;1.90;1.90;;;;;;;18.42;96.34;96672.97;5007310;28;20050;-61
2023/06/28 03:54:11;;;;;;;1.90;1.90;;;;;;;18.60;96.07;96657.38;5006987;28;20050;-59
2023/06/28 03:56:39;;;;;;;1.60;1.60;;;;;;;18.63;95.08;96659.34;5006738;28;20133;-59
2023/06/28 03:59:05;;;;;;;1.73;1.73;;;;;;;18.80;94.52;96669.38;5021947;28;20061;-59
2023/06/28 04:01:33;;;;;;;1.80;1.80;;;;;;;19.07;92.45;96670.00;5005395;28;20468;-60
2023/06/28 04:03:59;;;;;;;1.80;1.80;;;;;;;19.02;90.88;96633.22;5006773;28;20050;-59
2023/06/28 04:06:26;;;;;;;1.70;1.70;;;;;;;19.38;90.14;96662.88;5005152;28;20065;-60
2023/06/28 04:08:53;;;;;;;1.88;1.88;;;;;;;19.37;91.19;96672.56;5006467;28;20060;-59
2023/06/28 04:11:20;;;;;;;2.03;2.03;;;;;;;19.64;91.93;96668.69;5006352;28;20058;-60
2023/06/28 04:13:46;;;;;;;1.95;1.95;;;;;;;20.00;89.14;96658.13;5021535;28;20053;-61
2023/06/28 04:16:13;;;;;;;1.90;1.90;;;;;;;20.39;86.40;96666.38;5021317;28;20418;-60
2023/06/28 04:18:40;;;;;;;1.80;1.80;;;;;;;20.45;85.71;96662.59;5006667;28;20053;-60
2023/06/28 04:21:07;;;;;;;2.00;2.00;;;;;;;20.53;84.65;96657.53;5006311;28;20058;-62
2023/06/28 04:23:33;;;;;;;1.92;1.92;;;;;;;19.79;84.54;96506.91;5006055;28;20050;-60
2023/06/28 04:26:00;;;;;;;2.00;2.00;;;;;;;20.63;83.72;96605.75;5004987;28;20524;-61
2023/06/28 04:28:27;;;;;;;2.15;2.15;;;;;;;20.59;83.72;96633.22;5006095;28;20057;-60
2023/06/28 04:30:53;;;;;;;2.13;2.13;;;;;;;20.98;83.12;96661.06;5020727;28;20057;-59
2023/06/28 04:33:22;;;;;;;1.98;1.98;;;;;;;20.46;84.82;96609.88;5021071;28;20587;-59
2023/06/28 04:35:52;;;;;;;2.35;2.33;;;;;;;20.62;87.13;96661.28;5006244;28;20130;-60
2023/06/28 04:38:20;;;;;;;1.80;1.80;;;;;;;20.70;85.83;96656.22;5005659;28;20414;-60
2023/06/28 04:40:47;;;;;;;2.20;2.20;;;;;;;20.91;84.74;96666.88;5006120;28;20058;-59
2023/06/28 04:43:14;;;;;;;2.20;2.20;;;;;;;20.79;84.20;96611.31;5006057;28;20058;-60
2023/06/28 04:45:41;;;;;;;2.42;2.33;;;;;;;21.14;84.73;96658.16;5005948;28;20548;-60
2023/06/28 04:48:08;;;;;;;2.15;2.15;;;;;;;21.26;83.77;96665.06;5005478;28;20058;-59
2023/06/28 04:50:36;;;;;;;2.08;2.08;;;;;;;21.14;84.44;96658.16;5004386;28;20126;-60
2023/06/28 04:53:07;;;;;;;2.20;2.20;;;;;;;21.13;83.91;96617.16;5005468;28;20056;-61
2023/06/28 04:55:35;;;;;;;2.08;2.08;;;;;;;21.53;83.32;96657.72;5005574;28;20064;-60
2023/06/28 04:58:03;;;;;;;2.20;2.20;;;;;;;21.72;82.78;96648.25;5005389;28;20045;-61
2023/06/28 05:00:31;;;;;;;2.05;2.05;;;;;;;21.69;81.70;96601.22;5005029;28;20061;-59
2023/06/28 05:03:02;;;;;;;2.25;2.25;;;;;;;21.31;81.50;96515.94;5005234;28;20054;-62
2023/06/28 05:05:29;;;;;;;2.15;2.15;;;;;;;22.09;80.95;96605.09;5005740;28;20064;-60
2023/06/28 05:07:56;;;;;;;2.30;2.30;;;;;;;22.19;79.61;96605.97;5005153;28;20516;-60
2023/06/28 05:10:24;;;;;;;2.90;2.80;;;;;;;22.48;78.53;96655.28;5020407;28;20137;-59
2023/06/28 05:12:51;;;;;;;2.28;2.28;;;;;;;21.77;81.56;96594.13;5005263;28;20052;-61
2023/06/28 05:15:19;;;;;;;2.10;2.10;;;;;;;21.83;84.20;96648.69;5003786;28;20440;-59
2023/06/28 05:17:46;;;;;;;2.20;2.20;;;;;;;21.24;85.31;96600.69;4709480;28;5001449;-60
2023/06/28 05:20:13;;;;;;;2.10;2.10;;;;;;;21.54;83.76;96650.84;4966631;28;20046;-61
2023/06/28 05:22:46;;;;;;;2.20;2.20;;;;;;;20.99;85.25;96600.69;4966187;28;20105;-61
2023/06/28 05:25:13;;;;;;;2.10;2.10;;;;;;;21.40;85.18;96654.13;4966426;28;20063;-61
2023/06/28 05:27:39;;;;;;;2.50;2.40;;;;;;;21.78;83.45;96668.25;4965795;28;21945;-61
2023/06/28 05:30:07;;;;;;;2.13;2.13;;;;;;;22.12;80.79;96660.63;4966441;28;20059;-60
2023/06/28 05:32:34;;;;;;;2.00;2.00;;;;;;;22.30;79.78;96655.13;4980785;28;20055;-60
2023/06/28 05:35:05;;;;;;;2.20;2.20;;;;;;;22.40;79.28;96659.63;4980476;28;20186;-60
2023/06/28 05:37:32;;;;;;;2.60;2.50;;;;;;;22.62;78.36;96653.25;4965510;28;20482;-61
2023/06/28 05:39:58;;;;;;;2.35;2.30;;;;;;;22.81;77.41;96654.94;4965712;28;20050;-60
2023/06/28 05:42:25;;;;;;;2.58;2.47;;;;;;;22.95;76.51;96663.66;4998864;28;20539;-59
2023/06/28 05:44:52;;;;;;;2.60;2.50;;;;;;;23.13;75.50;96660.97;4984093;28;20050;-60
2023/06/28 05:47:19;;;;;;;2.70;2.60;;;;;;;23.27;74.90;96654.00;4984785;28;20109;-59
2023/06/28 05:49:46;;;;;;;2.63;2.53;;;;;;;23.12;74.03;96596.44;4985276;28;20058;-59
2023/06/28 05:52:13;;;;;;;2.97;2.88;;;;;;;23.62;73.03;96642.06;4985001;28;20062;-59
2023/06/28 05:54:39;;;;;;;2.50;2.40;;;;;;;23.97;72.37;96651.16;4985299;28;20133;-59
2023/06/28 05:57:06;;;;;;;2.90;2.80;;;;;;;24.09;71.14;96647.41;4983347;28;20204;-59
2023/06/28 05:59:33;;;;;;;2.50;2.40;;;;;;;23.89;71.63;96652.69;4985592;28;20050;-60
2023/06/28 06:02:00;;;;;;;2.88;2.78;;;;;;;24.39;71.79;96649.34;4983358;28;20046;-59
2023/06/28 06:04:26;;;;;;;3.08;2.97;;;;;;;24.19;70.01;96566.91;4983691;28;20054;-60
2023/06/28 06:06:53;;;;;;;3.10;3.00;;;;;;;24.90;69.97;96644.63;4984561;28;20051;-62
2023/06/28 06:09:20;;;;;;;2.88;2.78;;;;;;;25.02;70.59;96640.84;4984847;28;20141;-60
2023/06/28 06:11:47;;;;;;;3.67;3.58;;;;;;;25.43;69.88;96641.41;4984682;28;20069;-60
2023/06/28 06:14:14;;;;;;;3.40;3.30;;;;;;;25.50;67.30;96621.22;4984879;28;20054;-59
2023/06/28 06:16:40;;;;;;;3.50;3.40;;;;;;;25.62;66.41;96598.28;4984532;28;20457;-61
2023/06/28 06:19:07;;;;;;;3.72;3.63;;;;;;;25.80;66.12;96635.06;4983297;28;20060;-60
2023/06/28 06:21:34;;;;;;;3.80;3.70;;;;;;;25.90;63.95;96633.78;4984380;28;20058;-60
2023/06/28 06:24:01;;;;;;;3.58;3.47;;;;;;;25.90;62.81;96641.50;5015681;28;20137;-60
2023/06/28 06:26:28;;;;;;;3.65;3.55;;;;;;;26.08;60.06;96639.34;4984576;28;20054;-61
2023/06/28 06:28:55;;;;;;;3.80;3.70;;;;;;;26.41;56.87;96630.78;4984791;28;20591;-61
2023/06/28 06:31:22;;;;;;;3.63;3.53;;;;;;;26.59;55.75;96636.31;4984553;28;20492;-60
2023/06/28 06:33:49;;;;;;;3.47;3.38;;;;;;;26.46;54.02;96570.47;4984727;28;20054;-59
2023/06/28 06:36:15;;;;;;;3.65;3.55;;;;;;;27.05;54.03;96628.97;4983416;28;20054;-60
2023/06/28 06:38:42;;;;;;;3.80;3.70;;;;;;;27.21;53.50;96631.34;4983594;28;20081;-60
2023/06/28 06:41:08;;;;;;;3.60;3.50;;;;;;;26.72;52.65;96599.94;4982946;28;20338;-60
2023/06/28 06:43:35;;;;;;;3.75;3.65;;;;;;;26.68;52.99;96553.88;4983436;28;20058;-60
2023/06/28 06:46:02;;;;;;;3.63;3.53;;;;;;;26.31;57.79;96615.88;4983339;28;20054;-61
2023/06/28 06:48:28;;;;;;;3.97;3.88;;;;;;;26.41;56.16;96619.44;4985241;28;20437;-61
2023/06/28 06:50:55;;;;;;;3.80;3.70;;;;;;;26.77;54.46;96622.00;4988655;28;20054;-60
2023/06/28 06:53:22;;;;;;;3.70;3.60;;;;;;;26.25;56.91;96599.97;4988343;28;20065;-61
2023/06/28 06:55:48;;;;;;;3.80;3.70;;;;;;;26.64;56.74;96618.63;4987053;28;20054;-61
2023/06/28 06:58:15;;;;;;;3.78;3.67;;;;;;;26.93;57.14;96627.22;4988205;28;20180;-61
2023/06/28 07:00:42;;;;;;;3.70;3.60;;;;;;;26.78;56.44;96554.56;4988158;28;20050;-62
2023/06/28 07:03:09;;;;;;;3.95;3.85;;;;;;;26.57;56.58;96601.94;4988281;28;20056;-60
2023/06/28 07:05:35;;;;;;;3.50;3.40;;;;;;;26.69;57.97;96612.28;4988087;28;20446;-60
2023/06/28 07:08:02;;;;;;;3.88;3.78;;;;;;;27.17;55.94;96613.69;4987879;28;20365;-63
2023/06/28 07:10:29;;;;;;;3.70;3.60;;;;;;;27.45;54.40;96606.44;4986458;28;20128;-62
2023/06/28 07:12:56;;;;;;;3.95;3.85;;;;;;;27.69;53.12;96604.25;4987807;28;20465;-61
2023/06/28 07:15:26;;;;;;;4.32;4.22;;;;;;;27.61;53.58;96623.00;4987854;28;20552;-62
2023/06/28 07:17:53;;;;;;;4.43;4.32;;;;;;;27.54;53.26;96569.34;4987683;28;20053;-61
2023/06/28 07:20:20;;;;;;;4.30;4.20;;;;;;;27.96;53.18;96601.03;4987880;28;20066;-62
2023/06/28 07:22:47;;;;;;;4.40;4.30;;;;;;;28.28;51.00;96609.78;4987684;28;20062;-62
2023/06/28 07:25:14;;;;;;;4.30;4.20;;;;;;;28.54;50.85;96610.63;4987914;28;20070;-61
2023/06/28 07:27:41;;;;;;;4.57;4.47;;;;;;;28.48;51.04;96599.19;4987087;28;20616;-58
2023/06/28 07:30:09;;;;;;;4.38;4.28;;;;;;;28.73;50.27;96600.50;4985754;28;20085;-62
2023/06/28 07:32:36;;;;;;;4.43;4.32;;;;;;;28.96;48.90;96599.47;4985874;28;20422;-61
2023/06/28 07:35:03;;;;;;;4.70;4.60;;;;;;;27.42;48.92;96351.38;4987807;28;20062;-60
2023/06/28 07:37:32;;;;;;;3.88;3.78;;;;;;;29.22;47.39;96597.41;4987262;28;20129;-61
2023/06/28 07:39:59;;;;;;;4.30;4.20;;;;;;;29.11;46.88;96558.16;4986101;28;20133;-61
2023/06/28 07:42:27;;;;;;;4.22;4.13;;;;;;;29.11;46.62;96540.25;4987647;28;20137;-61
2023/06/28 07:44:53;;;;;;;4.43;4.32;;;;;;;29.71;45.35;96593.44;4986172;28;20437;-61
2023/06/28 07:47:20;;;;;;;4.50;4.40;;;;;;;29.41;44.22;96590.84;4987204;28;20065;-60
2023/06/28 07:49:47;;;;;;;4.45;4.35;;;;;;;28.61;46.92;96587.41;4985567;28;20560;-63
2023/06/28 07:52:14;;;;;;;4.10;4.00;;;;;;;28.88;44.83;96584.09;4987089;28;20054;-60
2023/06/28 07:54:40;;;;;;;4.60;4.50;;;;;;;29.13;44.70;96580.47;4987169;28;20054;-60
2023/06/28 07:57:09;;;;;;;4.50;4.40;;;;;;;28.59;45.66;96589.97;4987341;28;20469;-60
2023/06/28 07:59:36;;;;;;;4.18;4.07;;;;;;;27.86;48.22;96579.66;4986180;28;20501;-61
2023/06/28 08:02:03;;;;;;;4.20;4.10;;;;;;;27.58;48.66;96578.47;4985589;28;20445;-61
2023/06/28 08:04:29;;;;;;;4.10;4.00;;;;;;;28.26;47.25;96586.69;4986772;28;20056;-62
2023/06/28 08:06:56;;;;;;;4.38;4.28;;;;;;;28.47;47.37;96583.31;4985044;28;20156;-60
2023/06/28 08:09:23;;;;;;;4.20;4.10;;;;;;;28.31;47.32;96585.97;4986718;28;20137;-59
2023/06/28 08:11:50;;;;;;;4.20;4.10;;;;;;;28.70;47.88;96588.03;4985353;28;20046;-60
2023/06/28 08:14:16;;;;;;;4.05;3.95;;;;;;;28.78;48.00;96542.75;4986805;28;20052;-61
2023/06/28 08:16:45;;;;;;;4.47;4.38;;;;;;;29.11;47.94;96568.78;4986340;28;20050;-60
2023/06/28 08:19:13;;;;;;;4.50;4.40;;;;;;;29.15;49.09;96575.06;5018233;28;20050;-61
2023/06/28 08:21:39;;;;;;;4.55;4.45;;;;;;;29.45;47.15;96576.31;4986533;28;20046;-62
2023/06/28 08:24:06;;;;;;;4.38;4.28;;;;;;;29.13;48.88;96569.06;4986700;28;20085;-61
2023/06/28 08:26:36;;;;;;;4.43;4.32;;;;;;;29.63;48.54;96573.09;4985343;28;20101;-60
2023/06/28 08:29:03;;;;;;;3.90;3.80;;;;;;;29.03;48.37;96527.69;4985261;28;20062;-60
2023/06/28 08:31:30;;;;;;;4.25;4.15;;;;;;;29.06;48.03;96526.69;4986406;28;20055;-60
2023/06/28 08:33:58;;;;;;;4.43;4.32;;;;;;;29.16;48.91;96536.66;4986900;28;20056;-61
2023/06/28 08:36:24;;;;;;;3.95;3.85;;;;;;;28.48;49.78;96555.66;4985560;28;20061;-61
2023/06/28 08:38:51;;;;;;;4.15;4.05;;;;;;;28.78;51.29;96551.31;4985325;28;20066;-61
2023/06/28 08:41:18;;;;;;;4.78;4.68;;;;;;;29.63;48.65;96547.41;4986243;28;20057;-61
2023/06/28 08:43:50;;;;;;;4.30;4.20;;;;;;;29.71;48.33;96554.25;4985332;28;20068;-61
2023/06/28 08:46:17;;;;;;;4.70;4.60;;;;;;;30.24;48.47;96557.16;4985920;28;20059;-61
2023/06/28 08:48:48;;;;;;;4.30;4.20;;;;;;;30.36;47.24;96553.06;4986115;28;20058;-61
2023/06/28 08:51:15;;;;;;;4.60;4.50;;;;;;;30.44;47.35;96548.44;4986165;28;20066;-62
2023/06/28 08:53:47;;;;;;;4.93;4.82;;;;;;;30.69;48.20;96550.31;4984950;28;20497;-60
2023/06/28 08:56:15;;;;;;;4.72;4.63;;;;;;;30.41;46.00;96455.13;4985820;28;20056;-61
2023/06/28 08:58:42;;;;;;;4.60;4.50;;;;;;;31.26;45.27;96537.69;4984588;28;20137;-61
2023/06/28 09:01:09;;;;;;;4.95;4.85;;;;;;;31.14;44.10;96536.13;4985895;28;20153;-61
2023/06/28 09:03:41;;;;;;;4.35;4.25;;;;;;;30.22;46.12;96536.91;4985794;28;20426;-61
2023/06/28 09:06:09;;;;;;;4.35;4.25;;;;;;;30.43;46.45;96535.41;4984423;28;20068;-61
2023/06/28 09:08:35;;;;;;;4.22;4.13;;;;;;;30.20;46.64;96502.31;4985884;28;20397;-60
2023/06/28 09:11:03;;;;;;;4.10;4.00;;;;;;;28.85;48.88;96539.47;4984062;28;20129;-61
2023/06/28 09:13:30;;;;;;;4.30;4.20;;;;;;;28.35;49.43;96438.38;4969888;28;20502;-61
2023/06/28 09:15:57;;;;;;;4.10;4.00;;;;;;;29.21;49.86;96535.94;4966670;28;20050;-59
2023/06/28 09:18:23;;;;;;;4.05;3.95;;;;;;;28.71;49.62;96540.34;4965992;28;20057;-60
2023/06/28 09:20:52;;;;;;;4.32;4.22;;;;;;;28.17;51.44;96531.41;4966076;28;20055;-60
2023/06/28 09:23:27;;;;;;;4.25;4.15;;;;;;;28.25;51.01;96542.41;4964286;28;20457;-59
2023/06/28 09:25:55;;;;;;;4.00;3.90;;;;;;;28.23;50.37;96522.16;4964740;28;20484;-60
2023/06/28 09:28:33;;;;;;;3.88;3.78;;;;;;;28.43;51.28;96539.22;4996585;28;20062;-62
2023/06/28 09:31:00;;;;;;;4.40;4.30;;;;;;;28.46;51.49;96532.53;4965717;28;20538;-62
2023/06/28 09:33:27;;;;;;;4.25;4.15;;;;;;;28.49;49.78;96528.69;4996370;28;20062;-61
2023/06/28 09:35:55;;;;;;;4.20;4.10;;;;;;;28.43;52.03;96527.81;4965486;28;20492;-60
2023/06/28 09:38:23;;;;;;;3.85;3.75;;;;;;;28.16;52.18;96500.59;4996704;28;20086;-61
2023/06/28 09:40:56;;;;;;;4.00;3.90;;;;;;;28.36;51.80;96525.44;4968189;28;20058;-60
2023/06/28 09:43:24;;;;;;;3.97;3.88;;;;;;;29.20;48.58;96522.94;4984672;28;20090;-61
2023/06/28 09:45:53;;;;;;;4.70;4.60;;;;;;;29.30;49.52;96530.03;4985151;28;20433;-61
2023/06/28 09:48:26;;;;;;;4.10;4.00;;;;;;;28.91;50.67;96532.50;4985278;28;20062;-61
2023/06/28 09:50:56;;;;;;;4.10;4.00;;;;;;;28.83;49.82;96524.94;4983814;28;20050;-60
2023/06/28 09:53:25;;;;;;;4.00;3.90;;;;;;;28.46;50.06;96484.06;4984890;28;20086;-61
2023/06/28 09:55:52;;;;;;;4.03;3.92;;;;;;;28.96;51.18;96533.88;4983377;28;20112;-61
2023/06/28 09:58:20;;;;;;;4.32;4.22;;;;;;;28.56;53.52;96540.47;4985001;28;20094;-61
2023/06/28 10:00:49;;;;;;;4.35;4.25;;;;;;;28.53;53.00;96534.97;4983337;28;20526;-60
2023/06/28 10:03:20;;;;;;;4.18;4.07;;;;;;;28.66;52.78;96521.13;4984686;28;20052;-61
2023/06/28 10:05:48;;;;;;;3.85;3.75;;;;;;;28.87;52.53;96526.25;4984676;28;20173;-60
2023/06/28 10:08:16;;;;;;;4.05;3.95;;;;;;;28.83;53.98;96511.47;4984653;28;20107;-60
2023/06/28 10:10:44;;;;;;;4.00;3.90;;;;;;;28.36;51.95;96474.91;4984709;28;20050;-61
2023/06/28 10:13:19;;;;;;;4.18;4.07;;;;;;;28.96;53.18;96511.81;4984842;28;20154;-59
2023/06/28 10:16:10;;;;;;;4.40;4.30;;;;;;;29.51;51.15;96506.56;4984760;28;20422;-60
2023/06/28 10:18:38;;;;;;;4.50;4.40;;;;;;;28.89;51.31;96457.31;4984837;28;20108;-60
2023/06/28 10:21:07;;;;;;;4.57;4.47;;;;;;;29.16;51.06;96519.53;4984718;28;20061;-60
2023/06/28 10:23:35;;;;;;;4.45;4.35;;;;;;;29.40;51.88;96502.88;4983879;28;20581;-61
2023/06/28 10:26:03;;;;;;;4.70;4.60;;;;;;;30.16;50.16;96498.91;4983192;28;20120;-60
2023/06/28 10:28:31;;;;;;;4.70;4.60;;;;;;;29.64;50.26;96503.31;4983298;28;20050;-61
2023/06/28 10:30:58;;;;;;;4.50;4.40;;;;;;;30.27;49.08;96498.22;4984410;28;20093;-61
2023/06/28 10:33:27;;;;;;;4.47;4.38;;;;;;;30.44;49.36;96491.25;4984241;28;20106;-60
2023/06/28 10:35:55;;;;;;;4.50;4.40;;;;;;;30.54;47.08;96495.41;4983068;28;20054;-60
2023/06/28 10:38:23;;;;;;;4.43;4.32;;;;;;;29.86;49.90;96502.66;4985023;28;20108;-60
2023/06/28 10:40:50;;;;;;;4.07;3.97;;;;;;;29.62;51.24;96500.16;4984445;28;20050;-60
2023/06/28 10:43:24;;;;;;;4.38;4.28;;;;;;;30.11;48.95;96491.09;4984602;28;20529;-64
2023/06/28 10:45:52;;;;;;;4.47;4.38;;;;;;;30.42;48.08;96493.84;4978680;28;20086;-61
2023/06/28 10:48:23;;;;;;;4.55;4.45;;;;;;;30.07;49.37;96496.28;4964811;28;20059;-60
2023/06/28 10:50:51;;;;;;;4.50;4.40;;;;;;;29.52;51.14;96491.03;4965338;28;20485;-59
2023/06/28 10:53:22;;;;;;;4.72;4.63;;;;;;;29.39;50.34;96495.59;4979625;28;20067;-61
2023/06/28 10:56:08;;;;;;;4.20;4.10;;;;;;;28.62;51.83;96492.84;4965040;28;20070;-59
2023/06/28 10:58:42;;;;;;;4.28;4.18;;;;;;;29.27;50.79;96491.91;4964504;28;20438;-60
2023/06/28 11:01:10;;;;;;;4.38;4.28;;;;;;;28.93;51.41;96500.63;4942243;28;20059;-60
2023/06/28 11:03:42;;;;;;;4.28;4.18;;;;;;;27.17;52.67;96391.84;4945467;28;20526;-60
2023/06/28 11:06:13;;;;;;;4.35;4.25;;;;;;;28.15;53.53;96505.50;4960105;28;20237;-60
2023/06/28 11:08:44;;;;;;;3.97;3.88;;;;;;;28.07;54.61;96507.19;4945597;28;20059;-60
2023/06/28 11:11:31;;;;;;;4.20;4.10;;;;;;;27.38;56.88;96515.78;4945417;28;20486;-60
2023/06/28 11:14:16;;;;;;;3.83;3.72;;;;;;;27.54;56.38;96512.41;4945698;28;20063;-61
2023/06/28 11:16:43;;;;;;;4.05;3.95;;;;;;;27.55;56.77;96513.97;4945679;28;20061;-61
2023/06/28 11:19:14;;;;;;;4.05;3.95;;;;;;;28.25;55.42;96514.66;4960124;28;20163;-60
2023/06/28 11:21:41;;;;;;;4.13;4.03;;;;;;;28.27;54.33;96499.91;4945610;28;20062;-61
2023/06/28 11:24:08;;;;;;;4.20;4.10;;;;;;;27.93;55.39;96505.22;4945666;29;20066;-63
2023/06/28 11:26:41;;;;;;;4.05;3.95;;;;;;;28.10;55.41;96511.13;4976036;28;20059;-59
2023/06/28 11:29:17;;;;;;;3.92;3.83;;;;;;;28.12;53.53;96435.28;4945266;28;20051;-60
2023/06/28 11:31:46;;;;;;;4.25;4.15;;;;;;;28.96;53.47;96511.06;4945281;28;20570;-61
2023/06/28 11:34:17;;;;;;;4.60;4.50;;;;;;;27.69;54.38;96427.78;4946932;28;20050;-60